Aviation Digital Data Service (ADDS)

Output produced by METARs form (0354 UTC 26 June 2019)
found at http://www.aviationweather.gov/metar/data/
 
Forecast for: LRTR (TIMISOARA/GIARMA, RO)
Text: TAF LRTR 252300Z 2600/2624 VRB04KT CAVOK
Forecast period: 0000 UTC 26 June 2019 to 0000 UTC 27 June 2019
Forecast type: FROM: standard forecast or significant change
Winds: variable direction winds at 5 MPH (4 knots; 2.1 m/s)
Visibility: 6 or more miles 10+ km)
Ceiling: unknown
Clouds: missing
Weather: NSW  (no significant weather)